Time;durP1;ratioP1;P1;durP2;ratioP2;P2;SDS_P1;SDS_P2;PMS_P1;PMS_P2;Temp;Humidity;BMP_temperature;BMP_pressure;BME280_temperature;BME280_humidity;BME280_pressure;Samples;Min_cycle;Max_cycle;Signal;HPM_P1;HPM_P2
2022/04/01 00:00:44;;;;;;;25.67;7.30;;;;;;;10.66;100.00;91553.84;4998246;28;20050;-84
2022/04/01 00:03:11;;;;;;;29.73;9.02;;;;;;;10.69;100.00;91568.75;4994041;28;20633;-84
2022/04/01 00:05:41;;;;;;;20.42;7.00;;;;;;;11.11;100.00;91626.19;4993878;28;20054;-84
2022/04/01 00:08:09;;;;;;;27.00;9.45;;;;;;;10.71;100.00;91565.94;4992994;28;20047;-84
2022/04/01 00:10:36;;;;;;;30.20;9.02;;;;;;;10.53;100.00;91529.41;4993395;28;20050;-84
2022/04/01 00:13:04;;;;;;;22.30;7.53;;;;;;;10.95;100.00;91603.03;4993343;28;20038;-85
2022/04/01 00:15:32;;;;;;;29.35;8.00;;;;;;;10.61;100.00;91543.56;4992122;28;20046;-84
2022/04/01 00:18:00;;;;;;;22.98;7.35;;;;;;;10.48;100.00;91540.44;4993472;28;20108;-84
2022/04/01 00:20:27;;;;;;;27.90;8.45;;;;;;;10.96;100.00;91614.06;4993261;28;20054;-83
2022/04/01 00:22:56;;;;;;;22.52;8.70;;;;;;;10.36;100.00;91565.47;4992473;28;20053;-83
2022/04/01 00:25:23;;;;;;;33.38;8.18;;;;;;;10.81;100.00;91612.19;5004010;28;20136;-83
2022/04/01 00:27:50;;;;;;;22.77;8.07;;;;;;;10.92;100.00;91623.31;5012853;28;20509;-83
2022/04/01 00:30:18;;;;;;;23.25;7.45;;;;;;;10.59;100.00;91584.13;5012351;28;20100;-84
2022/04/01 00:32:45;;;;;;;23.52;8.00;;;;;;;10.61;100.00;91605.97;5012669;28;20061;-84
2022/04/01 00:35:12;;;;;;;25.13;7.97;;;;;;;10.81;100.00;91632.75;5012548;28;20136;-83
2022/04/01 00:37:40;;;;;;;29.85;7.97;;;;;;;10.78;100.00;91621.19;5012229;28;20045;-83
2022/04/01 00:40:12;;;;;;;31.38;10.20;;;;;;;10.82;100.00;91624.00;5012857;28;20050;-83
2022/04/01 00:42:39;;;;;;;26.85;8.60;;;;;;;10.88;100.00;91643.56;5012748;28;20090;-83
2022/04/01 00:45:08;;;;;;;32.90;8.65;;;;;;;10.91;100.00;91637.16;5012300;28;20056;-83
2022/04/01 00:47:35;;;;;;;25.08;7.40;;;;;;;10.53;100.00;91591.00;5012054;28;20944;-83
2022/04/01 00:50:02;;;;;;;23.42;6.72;;;;;;;10.79;100.00;91627.84;5011540;28;20514;-82
2022/04/01 00:52:30;;;;;;;28.27;7.78;;;;;;;10.51;100.00;91587.94;5011709;28;20462;-83
2022/04/01 00:54:57;;;;;;;23.38;7.53;;;;;;;10.74;100.00;91619.38;5011807;28;20057;-84
2022/04/01 00:57:26;;;;;;;31.23;7.88;;;;;;;10.77;100.00;91627.34;5011673;28;20046;-84
2022/04/01 00:59:54;;;;;;;23.17;7.03;;;;;;;10.42;100.00;91564.50;5011489;28;20368;-84
2022/04/01 01:02:21;;;;;;;29.80;7.78;;;;;;;10.90;100.00;91646.66;5011282;28;20529;-84
2022/04/01 01:04:48;;;;;;;27.60;8.50;;;;;;;10.83;100.00;91625.56;5011374;28;20042;-84
2022/04/01 01:07:15;;;;;;;33.60;8.27;;;;;;;10.89;100.00;91642.56;5011645;28;20049;-84
2022/04/01 01:09:44;;;;;;;24.83;7.65;;;;;;;10.07;100.00;91527.34;5012061;28;20041;-84
2022/04/01 01:12:11;;;;;;;24.75;7.25;;;;;;;10.80;100.00;91634.53;5011930;28;20068;-84
2022/04/01 01:14:41;;;;;;;25.85;9.23;;;;;;;10.77;100.00;91634.25;5012020;28;20042;-84
2022/04/01 01:17:11;;;;;;;26.85;8.30;;;;;;;10.74;100.00;91634.78;5011295;28;20053;-84
2022/04/01 01:19:39;;;;;;;20.13;7.45;;;;;;;10.75;100.00;91631.97;5011273;28;20069;-83
2022/04/01 01:22:08;;;;;;;29.40;8.23;;;;;;;10.27;100.00;91565.94;5011311;28;20100;-83
2022/04/01 01:24:38;;;;;;;25.48;7.25;;;;;;;10.81;100.00;91648.94;5006857;28;20053;-84
2022/04/01 01:27:07;;;;;;;26.17;7.57;;;;;;;10.25;100.00;91559.53;4991682;28;20050;-83
2022/04/01 01:29:37;;;;;;;28.98;6.93;;;;;;;10.67;100.00;91635.78;4991735;28;20050;-83
2022/04/01 01:32:06;;;;;;;24.45;7.20;;;;;;;10.78;100.00;91639.16;4992138;28;20051;-84
2022/04/01 01:34:34;;;;;;;27.45;8.05;;;;;;;10.87;100.00;91649.72;4992146;28;20042;-83
2022/04/01 01:37:02;;;;;;;26.98;6.68;;;;;;;10.88;100.00;91630.72;4992048;28;20128;-83
2022/04/01 01:39:29;;;;;;;29.58;8.18;;;;;;;10.74;100.00;91611.66;4991174;28;20046;-82
2022/04/01 01:41:58;;;;;;;23.08;6.55;;;;;;;10.93;100.00;91643.59;4990853;28;20054;-80
2022/04/01 01:44:25;;;;;;;32.70;8.13;;;;;;;10.88;100.00;91622.25;4991138;28;20046;-80
2022/04/01 01:46:52;;;;;;;21.13;6.53;;;;;;;10.91;100.00;91632.78;4990786;28;20057;-80
2022/04/01 01:49:21;;;;;;;29.10;7.22;;;;;;;10.91;100.00;91629.44;4990785;28;20435;-80
2022/04/01 01:54:49;;;;;;;27.83;5.80;;;;;;;10.97;100.00;91620.72;4990772;28;20049;-80
2022/04/01 01:57:18;;;;;;;23.17;5.75;;;;;;;11.14;100.00;91628.25;4990668;28;20112;-83
2022/04/01 01:59:46;;;;;;;23.17;6.72;;;;;;;11.16;100.00;91633.16;4991410;28;20105;-82
2022/04/01 02:02:13;;;;;;;21.38;7.20;;;;;;;10.96;100.00;91590.94;4990906;28;20093;-83
2022/04/01 02:04:41;;;;;;;24.60;7.15;;;;;;;10.84;100.00;91570.63;4991053;28;20054;-83
2022/04/01 02:07:10;;;;;;;29.83;9.27;;;;;;;11.19;100.00;91628.28;4990551;28;20064;-82
2022/04/01 02:09:37;;;;;;;27.88;7.13;;;;;;;11.07;100.00;91609.75;4990977;28;20128;-82
2022/04/01 02:12:05;;;;;;;25.58;6.70;;;;;;;11.19;100.00;91620.56;4990484;28;20124;-82
2022/04/01 02:14:34;;;;;;;25.02;7.07;;;;;;;10.92;100.00;91571.94;4990588;28;20373;-82
2022/04/01 02:17:01;;;;;;;26.63;7.53;;;;;;;11.05;100.00;91586.88;4990845;28;20077;-81
2022/04/01 02:19:30;;;;;;;20.27;6.90;;;;;;;11.02;100.00;91581.47;4990204;28;20504;-81
2022/04/01 02:21:57;;;;;;;30.08;7.38;;;;;;;11.06;100.00;91582.50;4990194;28;20061;-82
2022/04/01 02:24:25;;;;;;;26.55;7.53;;;;;;;11.06;100.00;91582.50;4990012;28;20057;-82
2022/04/01 02:26:53;;;;;;;26.95;7.20;;;;;;;11.12;100.00;91591.78;4989673;28;20048;-82
2022/04/01 02:29:22;;;;;;;33.25;7.63;;;;;;;10.99;100.00;91579.38;4989539;28;20042;-82
2022/04/01 02:31:51;;;;;;;30.17;6.43;;;;;;;10.83;100.00;91556.22;4989882;28;20508;-82
2022/04/01 02:34:18;;;;;;;27.52;6.38;;;;;;;10.76;100.00;91548.75;4989262;28;20477;-83
2022/04/01 02:36:45;;;;;;;35.42;7.75;;;;;;;10.74;100.00;91532.81;4989709;28;20056;-83
2022/04/01 02:39:12;;;;;;;28.33;7.38;;;;;;;10.60;100.00;91506.06;4988996;28;20129;-82
2022/04/01 02:41:39;;;;;;;35.25;6.93;;;;;;;10.95;100.00;91556.78;4989606;28;20516;-83
2022/04/01 02:44:10;;;;;;;25.67;7.70;;;;;;;10.64;100.00;91518.13;4989768;28;20431;-83
2022/04/01 02:46:38;;;;;;;31.92;8.02;;;;;;;10.84;100.00;91562.91;4987755;28;20492;-83
2022/04/01 02:49:08;;;;;;;30.45;7.55;;;;;;;10.75;100.00;91562.63;4989924;28;20061;-83
2022/04/01 02:51:37;;;;;;;36.90;7.82;;;;;;;10.88;100.00;91565.75;4988484;28;20049;-83
2022/04/01 02:54:05;;;;;;;27.67;7.45;;;;;;;10.37;100.00;91495.94;4991476;28;20156;-82
2022/04/01 02:56:33;;;;;;;30.17;9.05;;;;;;;10.27;100.00;91483.84;4990002;28;20077;-83
2022/04/01 02:59:01;;;;;;;29.38;7.65;;;;;;;10.59;100.00;91522.50;4990199;28;20046;-82
2022/04/01 03:01:28;;;;;;;30.15;8.40;;;;;;;10.61;100.00;91528.94;4989757;28;20038;-82
2022/04/01 03:03:55;;;;;;;30.00;6.95;;;;;;;10.51;100.00;91526.31;4986835;28;20046;-82
2022/04/01 03:06:24;;;;;;;25.63;7.72;;;;;;;10.31;100.00;91512.34;4989549;28;20043;-82
2022/04/01 03:08:51;;;;;;;33.30;8.40;;;;;;;10.54;100.00;91538.63;4989469;28;20046;-82
2022/04/01 03:11:19;;;;;;;25.90;8.02;;;;;;;10.56;100.00;91534.81;4989585;28;20084;-82
2022/04/01 03:13:46;;;;;;;34.88;8.10;;;;;;;10.62;100.00;91543.31;4989250;28;20369;-82
2022/04/01 03:16:13;;;;;;;32.28;9.23;;;;;;;10.44;100.00;91529.09;4989190;28;20039;-81
2022/04/01 03:18:41;;;;;;;35.20;8.57;;;;;;;10.42;100.00;91531.88;4989387;28;20105;-82
2022/04/01 03:21:09;;;;;;;30.55;10.18;;;;;;;10.37;100.00;91531.88;4989603;28;20855;-82
2022/04/01 03:23:43;;;;;;;27.95;7.80;;;;;;;10.05;100.00;91475.53;4987408;28;20427;-81
2022/04/01 03:26:11;;;;;;;28.92;7.40;;;;;;;10.42;100.00;91526.75;4989708;28;20903;-82
2022/04/01 03:28:39;;;;;;;35.90;8.68;;;;;;;9.84;100.00;91436.94;4987805;28;20053;-83
2022/04/01 03:31:06;;;;;;;30.95;7.55;;;;;;;10.53;100.00;91540.44;4987842;28;20050;-82
2022/04/01 03:33:34;;;;;;;29.95;8.57;;;;;;;9.82;100.00;91434.59;4987800;28;20077;-82
2022/04/01 03:36:01;;;;;;;25.10;6.18;;;;;;;10.36;100.00;91504.66;4989254;28;20058;-81
2022/04/01 03:38:28;;;;;;;28.65;8.38;;;;;;;10.29;100.00;91514.38;4988966;28;20085;-83
2022/04/01 03:40:58;;;;;;;32.70;8.45;;;;;;;10.25;100.00;91511.56;4994253;28;20096;-83
2022/04/01 03:43:26;;;;;;;27.50;8.13;;;;;;;9.96;100.00;91478.53;4988940;28;20404;-82
2022/04/01 03:45:54;;;;;;;28.95;8.80;;;;;;;10.05;100.00;91465.25;4988969;28;20053;-82
2022/04/01 03:48:28;;;;;;;24.60;7.82;;;;;;;10.26;100.00;91513.09;4988856;28;20117;-83
2022/04/01 03:50:57;;;;;;;32.17;8.77;;;;;;;10.41;100.00;91524.44;4988902;28;20058;-83
2022/04/01 03:53:27;;;;;;;33.22;8.25;;;;;;;10.06;100.00;91466.78;4992693;28;20069;-84
2022/04/01 03:55:57;;;;;;;29.17;9.10;;;;;;;10.53;100.00;91531.97;4992242;28;20072;-84
2022/04/01 03:58:30;;;;;;;31.92;9.82;;;;;;;10.41;100.00;91509.81;4992556;28;20042;-83
2022/04/01 04:01:00;;;;;;;26.90;8.35;;;;;;;9.85;100.00;91425.66;4990294;28;20058;-84
2022/04/01 04:03:27;;;;;;;32.15;9.55;;;;;;;10.40;100.00;91497.22;4993178;28;20038;-82
2022/04/01 04:05:55;;;;;;;33.97;8.55;;;;;;;10.12;100.00;91452.97;4990356;28;20062;-83
2022/04/01 04:08:23;;;;;;;26.00;8.90;;;;;;;10.25;100.00;91462.00;4992561;28;20058;-83
2022/04/01 04:10:52;;;;;;;33.08;8.43;;;;;;;10.42;100.00;91480.56;4992811;28;20056;-84
2022/04/01 04:13:25;;;;;;;30.80;8.02;;;;;;;10.52;100.00;91490.09;4992898;28;20124;-84
2022/04/01 04:15:59;;;;;;;32.75;9.50;;;;;;;10.07;100.00;91428.06;4992560;28;20555;-83
2022/04/01 04:18:34;;;;;;;24.05;7.72;;;;;;;10.33;100.00;91471.03;4992236;28;20125;-83
2022/04/01 04:21:11;;;;;;;23.77;8.13;;;;;;;10.38;100.00;91482.06;4990318;28;20101;-83
2022/04/01 04:23:52;;;;;;;28.27;8.80;;;;;;;10.07;100.00;91430.63;4990119;28;20046;-82
2022/04/01 04:26:25;;;;;;;24.95;8.15;;;;;;;10.40;100.00;91480.03;4990139;28;20056;-83
2022/04/01 04:29:07;;;;;;;36.90;9.15;;;;;;;10.33;100.00;91456.41;4991977;28;20050;-83
2022/04/01 04:31:37;;;;;;;34.42;8.43;;;;;;;10.40;100.00;91463.84;4989145;28;20046;-82
2022/04/01 04:34:05;;;;;;;30.75;9.75;;;;;;;10.25;100.00;91431.22;4991855;28;20046;-83
2022/04/01 04:36:38;;;;;;;37.90;10.05;;;;;;;9.84;100.00;91401.03;4991794;28;20425;-84
2022/04/01 04:39:07;;;;;;;32.15;10.60;;;;;;;10.05;100.00;91399.34;4992075;28;20038;-83
2022/04/01 04:41:35;;;;;;;26.63;8.15;;;;;;;10.28;100.00;91452.00;4991759;28;20093;-83
2022/04/01 04:44:04;;;;;;;28.35;10.50;;;;;;;10.60;100.00;91495.78;4991871;28;20042;-84
2022/04/01 04:46:32;;;;;;;27.20;9.75;;;;;;;10.05;100.00;91417.31;4992198;28;20132;-83
2022/04/01 04:48:59;;;;;;;30.75;9.15;;;;;;;10.70;100.00;91493.28;4992080;28;20113;-83
2022/04/01 04:51:28;;;;;;;33.05;8.65;;;;;;;10.62;100.00;91481.69;4992217;28;20117;-83
2022/04/01 04:53:59;;;;;;;26.00;9.23;;;;;;;10.27;100.00;91439.41;4989245;28;20074;-83
2022/04/01 04:56:27;;;;;;;30.65;11.75;;;;;;;10.29;100.00;91429.69;4991764;28;20391;-83
2022/04/01 04:58:55;;;;;;;34.50;8.82;;;;;;;10.74;100.00;91475.56;4991651;28;20046;-83
2022/04/01 05:01:37;;;;;;;36.33;10.15;;;;;;;10.61;100.00;91464.75;4991732;28;20052;-84
2022/04/01 05:04:22;;;;;;;47.78;12.13;;;;;;;10.93;100.00;91478.41;4992811;28;20046;-84
2022/04/01 05:06:55;;;;;;;44.13;9.63;;;;;;;10.98;100.00;91475.09;4991907;28;20484;-84
2022/04/01 05:09:33;;;;;;;35.45;10.27;;;;;;;10.66;100.00;91403.09;4992311;28;20768;-84
2022/04/01 05:12:07;;;;;;;37.65;12.45;;;;;;;11.20;100.00;91460.19;4992361;28;20053;-83
2022/04/01 05:14:52;;;;;;;48.05;12.07;;;;;;;11.24;100.00;91450.16;4992075;28;20052;-81
2022/04/01 05:17:27;;;;;;;46.15;12.27;;;;;;;10.82;100.00;91367.16;4992359;28;20058;-83
2022/04/01 05:19:58;;;;;;;38.25;11.27;;;;;;;11.34;99.76;91414.19;4991989;28;20133;-83
2022/04/01 05:22:36;;;;;;;52.05;11.57;;;;;;;11.64;97.65;91437.56;4991603;28;20133;-82
2022/04/01 05:25:05;;;;;;;47.92;10.32;;;;;;;11.48;94.89;91413.69;4992009;28;20145;-82
2022/04/01 05:27:40;;;;;;;41.67;10.02;;;;;;;11.74;93.91;91421.34;4991644;28;20057;-82
2022/04/01 05:30:13;;;;;;;45.50;10.40;;;;;;;12.13;91.43;91448.28;4992239;28;20496;-82
2022/04/01 05:32:57;;;;;;;54.85;12.93;;;;;;;12.28;88.41;91466.22;4991599;28;20541;-83
2022/04/01 05:35:27;;;;;;;38.78;12.13;;;;;;;11.87;89.69;91399.44;4992034;28;20047;-83
2022/04/01 05:37:55;;;;;;;42.13;13.68;;;;;;;12.11;89.77;91417.66;4992113;28;20088;-83
2022/04/01 05:40:23;;;;;;;39.92;9.93;;;;;;;12.23;87.65;91412.19;4992137;28;20042;-84
2022/04/01 05:42:53;;;;;;;35.78;10.18;;;;;;;12.56;87.97;91453.00;4992140;28;20042;-83
2022/04/01 05:45:21;;;;;;;41.42;8.93;;;;;;;12.78;86.69;91470.66;4984954;28;20088;-82
2022/04/01 05:47:49;;;;;;;30.83;9.10;;;;;;;12.60;85.97;91430.06;5011894;28;20752;-82
2022/04/01 05:50:19;;;;;;;36.67;10.10;;;;;;;13.06;86.14;91483.91;5011001;28;20042;-82
2022/04/01 05:52:48;;;;;;;37.35;9.32;;;;;;;12.83;85.56;91431.97;5010931;28;20575;-83
2022/04/01 05:55:16;;;;;;;40.97;9.88;;;;;;;13.25;85.15;91483.28;5011158;28;20092;-82
2022/04/01 05:57:44;;;;;;;41.42;10.50;;;;;;;13.02;84.95;91428.00;5011228;28;20042;-83
2022/04/01 06:00:12;;;;;;;30.63;8.65;;;;;;;13.05;84.62;91410.19;5011296;28;20045;-82
2022/04/01 06:03:21;;;;;;;46.03;11.32;;;;;;;13.42;83.36;91443.47;5010570;28;20049;-82
2022/04/01 06:05:56;;;;;;;40.28;9.10;;;;;;;13.59;81.96;91451.59;5005778;28;20050;-83
2022/04/01 06:08:38;;;;;;;47.08;9.38;;;;;;;13.73;81.29;91459.47;5010531;28;20057;-84
2022/04/01 06:11:14;;;;;;;40.97;9.35;;;;;;;13.54;79.80;91419.91;5010793;28;20056;-83
2022/04/01 06:13:51;;;;;;;35.38;9.73;;;;;;;14.00;79.37;91480.63;5009703;28;20038;-84
2022/04/01 06:16:29;;;;;;;42.10;9.55;;;;;;;13.80;78.33;91425.56;5010807;28;20042;-85
2022/04/01 06:19:10;;;;;;;47.70;10.40;;;;;;;13.83;77.33;91419.88;5010527;28;20412;-84
2022/04/01 06:21:48;;;;;;;42.17;9.10;;;;;;;14.14;77.66;91470.44;5010793;28;20383;-84
2022/04/01 06:24:26;;;;;;;38.30;9.27;;;;;;;13.85;78.11;91402.31;5010510;28;20080;-84
2022/04/01 06:26:59;;;;;;;36.55;9.13;;;;;;;14.57;78.32;91505.88;5010197;28;20053;-84
2022/04/01 06:29:37;;;;;;;40.78;10.68;;;;;;;14.66;77.79;91503.44;5010605;28;20084;-84
2022/04/01 06:32:06;;;;;;;41.33;11.30;;;;;;;14.44;77.30;91442.72;5010664;28;20050;-84
2022/04/01 06:35:02;;;;;;;31.58;9.05;;;;;;;14.57;75.54;91460.13;5010238;28;20079;-83
2022/04/01 06:37:34;;;;;;;42.95;8.82;;;;;;;15.18;75.48;91519.09;5003981;28;20076;-84
2022/04/01 06:40:07;;;;;;;56.72;17.08;;;;;;;15.38;73.96;91501.00;5010302;28;20057;-83
2022/04/01 06:42:37;;;;;;;57.50;16.63;;;;;;;15.57;72.59;91512.09;5010188;28;20073;-84
2022/04/01 06:45:06;;;;;;;34.95;10.07;;;;;;;15.41;71.85;91459.78;5009818;28;20053;-84
2022/04/01 06:47:34;;;;;;;36.70;9.73;;;;;;;15.49;71.96;91461.75;5010277;28;20058;-86
2022/04/01 06:50:01;;;;;;;39.67;9.52;;;;;;;16.02;70.19;91500.56;5010329;28;20076;-85
2022/04/01 06:52:31;;;;;;;33.28;7.50;;;;;;;16.12;69.64;91508.13;5006612;28;20124;-84
2022/04/01 06:54:59;;;;;;;33.67;8.90;;;;;;;16.19;69.20;91502.56;5008483;28;20038;-84
2022/04/01 06:57:27;;;;;;;45.97;12.90;;;;;;;16.33;68.63;91509.59;5009921;28;20042;-86
2022/04/01 06:59:54;;;;;;;33.35;9.18;;;;;;;16.04;68.21;91459.59;5010110;28;20134;-85
2022/04/01 07:02:21;;;;;;;37.30;11.63;;;;;;;16.53;67.37;91527.34;5009777;28;20495;-84
2022/04/01 07:04:50;;;;;;;39.45;8.60;;;;;;;16.25;66.95;91478.09;5009921;28;20487;-84
2022/04/01 07:07:20;;;;;;;56.38;17.70;;;;;;;16.29;66.87;91452.38;5009635;28;20053;-85
2022/04/01 07:09:53;;;;;;;64.15;21.27;;;;;;;16.95;64.96;91511.75;5009593;28;20129;-85
2022/04/01 07:12:23;;;;;;;44.33;14.07;;;;;;;16.63;64.85;91458.22;5009882;28;20050;-85
2022/04/01 07:14:51;;;;;;;36.50;9.85;;;;;;;16.78;65.22;91470.91;5009709;28;20128;-84
2022/04/01 07:17:18;;;;;;;37.65;7.70;;;;;;;16.80;65.35;91483.56;5010065;28;20053;-84
2022/04/01 07:19:45;;;;;;;31.40;9.40;;;;;;;17.11;63.80;91493.31;5010248;28;20599;-85
2022/04/01 07:22:12;;;;;;;44.15;11.23;;;;;;;16.88;63.47;91454.34;5010137;28;20049;-85
2022/04/01 07:24:39;;;;;;;35.25;8.30;;;;;;;17.12;63.67;91491.50;5010496;28;20093;-84
2022/04/01 07:27:08;;;;;;;38.15;11.30;;;;;;;16.90;62.84;91441.84;5013921;28;20046;-85
2022/04/01 07:29:35;;;;;;;41.40;9.82;;;;;;;16.74;63.36;91436.22;5013560;28;20060;-84
2022/04/01 07:34:48;;;;;;;35.83;10.07;;;;;;;16.70;63.76;91445.63;5013547;28;20128;-85
2022/04/01 07:37:16;;;;;;;30.58;7.57;;;;;;;17.02;63.95;91489.84;5014006;28;20087;-84
2022/04/01 07:39:43;;;;;;;33.70;7.35;;;;;;;16.70;63.77;91435.28;5013572;28;20631;-84
2022/04/01 07:42:12;;;;;;;44.33;10.13;;;;;;;17.22;63.45;91512.81;5013637;28;20049;-84
2022/04/01 07:44:39;;;;;;;30.60;7.80;;;;;;;17.10;63.01;91473.63;5013403;28;20053;-84
2022/04/01 07:47:09;;;;;;;42.38;9.25;;;;;;;16.91;62.65;91424.47;5013236;28;20121;-84
2022/04/01 07:49:37;;;;;;;39.38;9.35;;;;;;;17.32;61.44;91477.31;5013439;28;20053;-84
2022/04/01 07:52:07;;;;;;;33.47;8.05;;;;;;;17.20;62.01;91438.91;5012969;28;20491;-85
2022/04/01 07:54:38;;;;;;;32.60;9.05;;;;;;;17.67;59.76;91477.56;5013173;28;20046;-85
2022/04/01 07:57:09;;;;;;;34.22;8.82;;;;;;;17.49;59.94;91445.50;5013158;28;20072;-85
2022/04/01 07:59:40;;;;;;;33.50;9.32;;;;;;;17.63;58.18;91453.25;5012621;28;20049;-84
2022/04/01 08:02:07;;;;;;;37.13;8.27;;;;;;;17.50;56.43;91442.63;5013549;28;20053;-85
2022/04/01 08:04:36;;;;;;;31.90;8.18;;;;;;;17.20;57.80;91451.88;5013026;28;20066;-85
2022/04/01 08:07:03;;;;;;;37.00;8.93;;;;;;;17.18;58.52;91505.91;5013345;28;20054;-84
2022/04/01 08:09:30;;;;;;;34.42;8.82;;;;;;;17.05;59.00;91486.72;5013271;28;20049;-84
2022/04/01 08:11:57;;;;;;;37.13;7.88;;;;;;;16.51;59.42;91437.97;5013188;28;20058;-83
2022/04/01 08:14:24;;;;;;;43.83;9.05;;;;;;;16.40;60.10;91460.75;5012578;28;20044;-84
2022/04/01 08:16:53;;;;;;;37.60;7.72;;;;;;;16.42;61.20;91500.88;5013176;28;20499;-83
2022/04/01 08:19:22;;;;;;;42.47;9.05;;;;;;;16.21;61.88;91486.75;5012865;28;20057;-83
2022/04/01 08:21:49;;;;;;;35.88;8.38;;;;;;;15.86;62.41;91480.06;5013041;28;20046;-83
2022/04/01 08:24:17;;;;;;;40.58;8.18;;;;;;;15.72;62.69;91466.31;5012421;28;20522;-83
2022/04/01 08:26:44;;;;;;;39.03;7.20;;;;;;;15.81;63.50;91481.94;5012750;28;20065;-84
2022/04/01 08:29:11;;;;;;;48.03;12.52;;;;;;;15.68;63.77;91486.81;5012545;28;20042;-83
2022/04/01 08:31:38;;;;;;;35.88;8.65;;;;;;;15.74;64.67;91510.81;5013078;28;20064;-83
2022/04/01 08:34:07;;;;;;;37.58;8.93;;;;;;;15.22;64.84;91458.00;5013061;28;20050;-83
2022/04/01 08:36:34;;;;;;;41.08;9.68;;;;;;;15.69;65.33;91513.47;5015262;28;20470;-84
2022/04/01 08:39:01;;;;;;;31.95;8.02;;;;;;;15.51;65.67;91495.13;5012839;28;20050;-83
2022/04/01 08:41:28;;;;;;;37.03;9.57;;;;;;;15.38;66.14;91485.47;5012791;28;20185;-82
2022/04/01 08:43:55;;;;;;;31.60;7.75;;;;;;;15.10;65.79;91460.25;5012396;28;20398;-83
2022/04/01 08:46:24;;;;;;;40.35;9.15;;;;;;;15.30;66.42;91495.41;5012192;28;20049;-83
2022/04/01 08:48:51;;;;;;;34.65;9.57;;;;;;;15.31;67.15;91511.69;5012205;28;20136;-83
2022/04/01 08:51:20;;;;;;;39.55;9.10;;;;;;;15.31;66.97;91506.50;5012142;28;20042;-83
2022/04/01 08:53:47;;;;;;;41.42;11.05;;;;;;;14.93;67.16;91479.63;5012369;28;20050;-83
2022/04/01 08:56:15;;;;;;;37.83;7.78;;;;;;;14.69;68.40;91446.78;5011743;28;20049;-84
2022/04/01 08:58:42;;;;;;;54.47;13.95;;;;;;;14.82;68.41;91466.03;5002181;28;20042;-83
2022/04/01 09:01:09;;;;;;;64.50;15.77;;;;;;;15.16;68.58;91497.16;5010540;28;20045;-84
2022/04/01 09:03:37;;;;;;;69.75;27.27;;;;;;;14.77;68.59;91447.25;5011054;28;20041;-84
2022/04/01 09:06:06;;;;;;;45.92;14.23;;;;;;;15.23;67.74;91505.34;5012220;28;20076;-85
2022/04/01 09:08:38;;;;;;;47.85;15.88;;;;;;;14.94;67.88;91449.34;5011486;28;20491;-84
2022/04/01 09:11:08;;;;;;;60.38;17.33;;;;;;;15.10;67.09;91450.66;5011435;28;20049;-85
2022/04/01 09:13:48;;;;;;;49.65;14.43;;;;;;;14.91;67.35;91409.31;5011706;28;20054;-84
2022/04/01 09:16:27;;;;;;;55.88;15.80;;;;;;;15.59;67.03;91475.56;5011498;28;20046;-84
2022/04/01 09:18:55;;;;;;;39.67;11.30;;;;;;;15.51;66.55;91430.44;5011802;28;20388;-84
2022/04/01 09:21:27;;;;;;;68.45;16.40;;;;;;;15.65;64.63;91420.09;5011713;28;20049;-85
2022/04/01 09:24:00;;;;;;;46.05;14.00;;;;;;;15.83;64.41;91415.88;5011854;28;20042;-86
2022/04/01 09:26:32;;;;;;;58.83;17.83;;;;;;;16.34;63.42;91473.03;5011389;28;20529;-84
2022/04/01 09:29:00;;;;;;;90.38;26.80;;;;;;;16.40;63.60;91471.88;5012056;28;20096;-83
2022/04/01 09:31:32;;;;;;;77.75;22.88;;;;;;;16.29;63.44;91442.81;5011711;28;20094;-83
2022/04/01 09:34:00;;;;;;;78.70;25.55;;;;;;;15.96;63.46;91374.81;5011419;28;20518;-84
2022/04/01 09:36:29;;;;;;;89.35;24.67;;;;;;;16.67;62.40;91451.41;5011543;28;20057;-85
2022/04/01 09:39:03;;;;;;;66.75;18.55;;;;;;;16.69;62.24;91451.88;5011679;28;20053;-84
2022/04/01 09:41:33;;;;;;;59.40;18.92;;;;;;;16.78;62.02;91452.75;5011428;28;20054;-83
2022/04/01 09:44:15;;;;;;;95.95;27.65;;;;;;;16.69;61.40;91451.88;5011487;28;20037;-84
2022/04/01 09:46:45;;;;;;;82.43;25.23;;;;;;;16.05;61.79;91375.66;5011365;28;20092;-82
2022/04/01 09:49:14;;;;;;;85.68;25.70;;;;;;;16.50;61.76;91423.50;5011384;28;20073;-83
2022/04/01 09:51:43;;;;;;;73.93;23.17;;;;;;;16.23;61.78;91386.97;5011149;28;20061;-83
2022/04/01 09:54:12;;;;;;;99.03;30.48;;;;;;;16.28;62.34;91388.69;5011088;28;20128;-83
2022/04/01 09:56:41;;;;;;;77.82;22.95;;;;;;;16.69;61.68;91439.72;5011083;28;20061;-82
2022/04/01 09:59:09;;;;;;;71.43;24.80;;;;;;;16.24;61.62;91393.69;5010946;28;20052;-83
2022/04/01 10:01:37;;;;;;;90.13;25.88;;;;;;;16.77;61.75;91458.22;5010546;28;20046;-83
2022/04/01 10:04:05;;;;;;;57.22;17.45;;;;;;;16.87;61.71;91452.03;5010655;28;20046;-83
2022/04/01 10:06:34;;;;;;;41.92;13.57;;;;;;;16.85;60.69;91452.31;5011251;28;20054;-83
2022/04/01 10:09:04;;;;;;;47.00;13.32;;;;;;;16.22;60.55;91377.66;5009792;28;20474;-83
2022/04/01 10:11:33;;;;;;;61.78;15.65;;;;;;;16.22;60.63;91384.66;5010371;28;20381;-83
2022/04/01 10:14:04;;;;;;;45.67;12.05;;;;;;;16.39;60.35;91397.03;5010052;28;20156;-84
2022/04/01 10:16:34;;;;;;;54.83;16.50;;;;;;;16.68;60.32;91422.59;5010166;28;20085;-83
2022/04/01 10:19:12;;;;;;;60.78;18.02;;;;;;;16.81;60.69;91431.41;5010313;28;20121;-83
2022/04/01 10:21:43;;;;;;;51.22;12.07;;;;;;;16.51;60.68;91393.94;5010247;28;20115;-83
2022/04/01 10:24:28;;;;;;;58.85;14.68;;;;;;;16.89;61.83;91435.13;5011204;28;20044;-83
2022/04/01 10:27:11;;;;;;;61.60;17.98;;;;;;;16.79;61.67;91430.16;5010423;28;20046;-83
2022/04/01 10:29:38;;;;;;;42.45;12.85;;;;;;;16.79;60.64;91427.56;5010542;28;20077;-83
2022/04/01 10:32:23;;;;;;;43.58;11.13;;;;;;;16.60;60.58;91379.22;5007189;28;20050;-83
2022/04/01 10:34:54;;;;;;;32.45;7.45;;;;;;;16.92;58.98;91415.63;5007291;28;20120;-83
2022/04/01 10:37:23;;;;;;;34.80;8.07;;;;;;;17.06;59.05;91428.59;5006914;28;20491;-83
2022/04/01 10:39:52;;;;;;;43.50;9.32;;;;;;;17.08;58.67;91395.34;5009484;28;20096;-83
2022/04/01 10:42:26;;;;;;;36.97;8.68;;;;;;;17.15;58.04;91372.34;5006828;28;20049;-83
2022/04/01 10:44:55;;;;;;;48.70;9.30;;;;;;;17.01;57.13;91359.41;5009426;28;20062;-84
2022/04/01 10:47:25;;;;;;;33.92;7.28;;;;;;;16.99;56.28;91389.31;5006997;28;20046;-83
2022/04/01 10:52:36;;;;;;;45.40;7.47;;;;;;;16.70;57.29;91306.44;5009171;28;20045;-83
2022/04/01 10:55:18;;;;;;;39.58;8.18;;;;;;;16.74;56.69;91295.47;5009561;28;20042;-83
2022/04/01 10:57:50;;;;;;;40.08;8.27;;;;;;;17.14;56.46;91331.13;5008063;28;20046;-83
2022/04/01 11:00:18;;;;;;;31.25;7.28;;;;;;;17.47;56.43;91369.78;5008765;28;20053;-83
2022/04/01 11:02:47;;;;;;;36.42;7.38;;;;;;;17.46;54.72;91357.88;5009660;28;20050;-84
2022/04/01 11:05:31;;;;;;;29.40;8.00;;;;;;;17.41;54.84;91366.53;5009508;28;20058;-83
2022/04/01 11:08:19;;;;;;;39.17;8.05;;;;;;;17.50;55.12;91385.53;5009012;28;20084;-83
2022/04/01 11:11:04;;;;;;;29.85;5.88;;;;;;;17.53;55.68;91384.16;5005948;28;20046;-84
2022/04/01 11:13:33;;;;;;;46.22;9.98;;;;;;;17.35;55.87;91350.34;5007652;28;20506;-84
2022/04/01 11:16:16;;;;;;;37.58;8.93;;;;;;;17.25;56.28;91391.34;5011846;28;20056;-83
2022/04/01 11:19:19;;;;;;;38.67;6.93;;;;;;;16.70;60.08;91363.47;5013800;28;20133;-82
2022/04/01 11:21:47;;;;;;;30.25;6.90;;;;;;;16.67;60.78;91376.25;4956478;28;20046;-83
2022/04/01 11:24:41;;;;;;;37.13;8.02;;;;;;;16.26;62.32;91339.00;5018366;28;20041;-83
2022/04/01 11:27:23;;;;;;;34.72;7.60;;;;;;;16.37;63.09;91373.22;5011114;28;20053;-83
2022/04/01 11:30:12;;;;;;;37.10;7.60;;;;;;;15.79;74.94;91355.41;5019707;28;20149;-82
2022/04/01 11:32:40;;;;;;;33.35;7.50;;;;;;;15.58;83.08;91378.28;5009614;28;20053;-84
2022/04/01 11:35:09;;;;;;;23.63;6.75;;;;;;;15.18;89.40;91381.28;5010004;28;20104;-84
2022/04/01 11:37:38;;;;;;;25.58;6.80;;;;;;;14.74;92.51;91352.94;5009640;28;20054;-83
2022/04/01 11:40:09;;;;;;;25.25;6.47;;;;;;;14.41;96.59;91317.47;5010132;28;20396;-83
2022/04/01 11:42:35;;;;;;;25.77;7.53;;;;;;;14.58;96.68;91357.53;5009588;28;20077;-83